Home   Weather   Australia   Melbourne   Past weeks
Flag for Australia

Past Weather in Melbourne, Victoria, Australia — Yesterday and Last 2 Weeks

Currently: 36 °F. Clear. (Weather station: Melbourne Airport, Australia). See more current weather

Past Weather in Melbourne — Graph

°F

Melbourne Temperature Yesterday

Maximum temperature yesterday: 55 °F (at 2:00 pm)
Minimum temperature yesterday: 34 °F (at 5:00 am)
Average temperature yesterday: 43 °F

High & Low Weather Summary for the Past Weeks

 TemperatureHumidityPressure
High64 °F (Aug 3, 1:11 pm)100% (Jul 27, 3:30 am)30.36 "Hg (Jul 27, 3:30 am)
Low30 °F (Jul 30, 6:00 am)40% (Aug 3, 2:05 pm)29.36 "Hg (Aug 4, 3:10 pm)
Average50 °F74%29.97 "Hg
* Reported Jul 26 5:00 am — Aug 10 5:00 am, Melbourne. Weather by CustomWeather, © 2022

Note: Actual official high and low records may vary slightly from our data, if they occured in-between our weather recording intervals... More about our weather records

Melbourne Weather History for the Previous 24 Hours

Scroll right to see more
 ConditionsComfort  
Time TempWeatherWind HumidityBarometerVisibility
5:00 am
Wed, Aug 10
37 °FClear.10 mph93%30.30 "Hg10 mi
4:30 am37 °FClear.13 mph93%30.27 "Hg10 mi
4:00 am36 °FPassing clouds.7 mph93%30.30 "HgN/A
3:00 am36 °FClear.9 mph100%30.30 "Hg10 mi
2:30 am37 °FClear.8 mph93%30.30 "Hg10 mi
2:00 am39 °FClear.12 mph93%30.30 "Hg10 mi
1:30 am37 °FClear.9 mph100%30.30 "Hg10 mi
1:00 am37 °FClear.12 mph93%30.30 "Hg10 mi
12:30 am37 °FClear.7 mph93%30.30 "Hg10 mi
12:00 am37 °FClear.9 mph100%30.30 "Hg10 mi
11:30 pm
Tue, Aug 9
37 °FClear.6 mph100%30.30 "Hg10 mi
11:00 pm39 °FClear.5 mph93%30.30 "Hg10 mi
10:30 pm39 °FClear.6 mph93%30.30 "Hg10 mi
10:00 pm39 °FClear.3 mph93%30.33 "Hg10 mi
9:00 pm45 °FPassing clouds.6 mph87%30.33 "HgN/A
8:30 pm45 °FPassing clouds.7 mph87%30.33 "HgN/A
8:00 pm43 °FPassing clouds.6 mph87%30.33 "HgN/A
7:30 pm45 °FPassing clouds.5 mph81%30.33 "HgN/A
7:00 pm46 °FPassing clouds.1 mph82%30.33 "HgN/A
6:30 pm46 °FPassing clouds.3 mph82%30.33 "HgN/A
6:00 pm46 °FPassing clouds.6 mph76%30.30 "HgN/A
5:30 pm48 °FPassing clouds.6 mph76%30.30 "HgN/A
5:00 pm52 °FPassing clouds.8 mph67%30.30 "HgN/A
4:30 pm52 °FPassing clouds.10 mph67%30.30 "HgN/A
4:00 pm54 °FPassing clouds.9 mph58%30.30 "HgN/A
3:00 pm54 °FScattered clouds.9 mph58%30.30 "HgN/A
2:30 pm55 °FScattered clouds.7 mph55%30.30 "HgN/A
2:00 pm55 °FPassing clouds.8 mph55%30.30 "HgN/A
1:30 pm54 °FScattered clouds.9 mph51%30.30 "HgN/A
1:00 pm54 °FPassing clouds.7 mph54%30.33 "HgN/A
12:30 pm54 °FPassing clouds.7 mph58%30.33 "HgN/A
12:00 pm54 °FPassing clouds.6 mph63%30.36 "HgN/A
11:00 am50 °FPassing clouds.5 mph71%30.36 "HgN/A
9:30 am46 °FPassing clouds.3 mph71%30.36 "HgN/A
9:00 am43 °FSunny.6 mph81%30.36 "Hg10 mi
8:30 am41 °FSunny.7 mph87%30.36 "Hg10 mi
8:00 am37 °FSunny.8 mph87%30.36 "Hg10 mi
7:30 am34 °FSunny.8 mph93%30.33 "Hg10 mi
7:00 am34 °FClear.8 mph87%30.33 "Hg10 mi
6:30 am34 °FClear.9 mph93%30.33 "Hg10 mi
Weather by CustomWeather, © 2022

See weather overview